createdAt,value
2018-07-15T00:02:20.376Z,49.70
2018-07-15T00:04:55.470Z,50.00
2018-07-15T00:07:27.707Z,50.60
2018-07-15T00:21:27.805Z,51.20
2018-07-15T00:23:55.615Z,51.00
2018-07-15T00:26:23.429Z,51.10
2018-07-15T00:28:51.229Z,51.10
2018-07-15T00:31:19.030Z,50.50
2018-07-15T00:33:47.552Z,50.80
2018-07-15T00:36:15.317Z,50.60
2018-07-15T00:38:50.945Z,50.60
2018-07-15T00:41:18.744Z,50.80
2018-07-15T00:43:46.557Z,51.20
2018-07-15T00:46:14.766Z,51.80
2018-07-15T00:48:42.529Z,51.90
2018-07-15T00:51:11.433Z,52.40
2018-07-15T00:53:40.186Z,52.70
2018-07-15T00:56:08.081Z,52.60
2018-07-15T00:58:35.934Z,52.80
2018-07-15T01:01:03.853Z,52.60
2018-07-15T01:03:33.140Z,52.90
2018-07-15T01:06:03.273Z,52.90
2018-07-15T01:08:36.256Z,53.00
2018-07-15T01:11:08.834Z,53.20
2018-07-15T01:13:39.366Z,53.40
2018-07-15T01:16:11.536Z,53.00
2018-07-15T01:18:45.550Z,53.30
2018-07-15T01:21:17.608Z,52.80
2018-07-15T01:23:48.652Z,52.90
2018-07-15T01:26:17.569Z,52.90
2018-07-15T01:28:45.342Z,52.80
2018-07-15T01:31:13.157Z,52.50
2018-07-15T01:33:40.925Z,52.70
2018-07-15T01:36:08.727Z,52.50
2018-07-15T01:38:36.497Z,52.70
2018-07-15T01:41:04.261Z,53.10
2018-07-15T01:43:32.054Z,53.00
2018-07-15T01:45:59.853Z,52.80
2018-07-15T01:48:27.653Z,52.80
2018-07-15T01:50:55.413Z,52.90
2018-07-15T01:53:23.240Z,53.20
2018-07-15T01:55:50.997Z,53.60
2018-07-15T01:58:18.844Z,53.70
2018-07-15T02:00:54.589Z,54.00
2018-07-15T02:03:22.521Z,53.90
2018-07-15T02:05:53.759Z,54.20
2018-07-15T02:08:21.813Z,53.90
2018-07-15T02:10:49.914Z,54.10
2018-07-15T02:13:17.717Z,54.40
2018-07-15T02:15:46.673Z,54.30
2018-07-15T02:18:22.520Z,54.50
2018-07-15T02:20:59.881Z,54.40
2018-07-15T02:23:27.637Z,54.70
2018-07-15T02:25:55.556Z,54.90
2018-07-15T02:28:23.429Z,55.10
2018-07-15T02:30:51.293Z,55.40
2018-07-15T02:33:19.090Z,55.60
2018-07-15T02:35:46.926Z,55.70
2018-07-15T02:38:14.705Z,55.80
2018-07-15T02:40:42.509Z,55.80
2018-07-15T02:43:10.303Z,56.00
2018-07-15T02:45:38.126Z,56.30
2018-07-15T02:48:05.930Z,56.70
2018-07-15T02:50:33.677Z,57.10
2018-07-15T02:53:01.477Z,57.30
2018-07-15T02:55:29.217Z,57.40
2018-07-15T02:57:56.993Z,57.70
2018-07-15T03:00:27.860Z,58.00
2018-07-15T03:02:56.274Z,58.70
2018-07-15T03:05:39.223Z,59.30
2018-07-15T03:08:12.827Z,59.60
2018-07-15T03:10:46.317Z,59.60
2018-07-15T03:13:19.413Z,59.80
2018-07-15T03:15:53.321Z,60.10
2018-07-15T03:18:27.854Z,60.30
2018-07-15T03:24:41.909Z,60.90
2018-07-15T03:27:09.865Z,61.40
2018-07-15T03:29:45.665Z,61.40
2018-07-15T03:32:13.397Z,61.80
2018-07-15T03:34:41.193Z,62.60
2018-07-15T03:37:08.989Z,62.90
2018-07-15T03:39:36.849Z,63.00
2018-07-15T03:42:04.757Z,62.50
2018-07-15T03:44:32.561Z,62.20
2018-07-15T03:47:00.321Z,62.80
2018-07-15T03:49:28.155Z,63.80
2018-07-15T03:51:55.954Z,64.10
2018-07-15T03:54:23.742Z,64.00
2018-07-15T03:56:59.164Z,64.70
2018-07-15T03:59:26.969Z,65.30
2018-07-15T04:01:54.757Z,66.20
2018-07-15T04:04:26.424Z,66.20
2018-07-15T04:06:59.620Z,67.40
2018-07-15T04:09:32.110Z,67.80
2018-07-15T04:12:02.286Z,67.90
2018-07-15T04:14:33.559Z,67.70
2018-07-15T04:17:06.548Z,68.80
2018-07-15T04:19:39.431Z,69.70
2018-07-15T04:22:10.576Z,71.00
2018-07-15T04:24:42.645Z,70.90
2018-07-15T04:27:14.399Z,71.40
2018-07-15T04:29:47.337Z,71.80
2018-07-15T04:32:18.836Z,72.20
2018-07-15T04:34:49.495Z,73.20
2018-07-15T04:37:21.331Z,73.90
2018-07-15T04:39:53.701Z,73.90
2018-07-15T04:42:25.461Z,75.40
2018-07-15T04:44:56.911Z,75.10
2018-07-15T04:47:27.425Z,74.90
2018-07-15T04:49:59.534Z,74.60
2018-07-15T04:52:30.311Z,74.60
2018-07-15T04:55:01.898Z,74.60
2018-07-15T04:57:32.529Z,75.10
2018-07-15T05:06:06.069Z,75.00
2018-07-15T05:08:37.308Z,75.30
2018-07-15T05:11:08.173Z,74.90
2018-07-15T05:13:38.581Z,74.80
2018-07-15T05:16:11.468Z,75.30
2018-07-15T05:18:43.228Z,76.00
2018-07-15T05:21:16.007Z,76.80
2018-07-15T05:23:47.224Z,75.50
2018-07-15T05:26:27.369Z,75.70
2018-07-15T05:28:55.325Z,74.30
2018-07-15T05:31:23.177Z,74.90
2018-07-15T05:33:51.049Z,76.90
2018-07-15T05:36:20.369Z,77.30
2018-07-15T05:38:48.157Z,77.00
2018-07-15T05:41:16.037Z,77.30
2018-07-15T05:43:43.812Z,75.70
2018-07-15T05:46:11.593Z,75.00
2018-07-15T05:48:39.409Z,74.10
2018-07-15T05:51:07.879Z,73.40
2018-07-15T05:53:35.769Z,72.70
2018-07-15T05:56:03.587Z,72.80
2018-07-15T05:58:31.430Z,73.60
2018-07-15T06:00:59.202Z,73.30
2018-07-15T06:03:29.163Z,72.10
2018-07-15T06:06:00.856Z,71.90
2018-07-15T06:08:36.308Z,71.40
2018-07-15T06:11:07.447Z,72.00
2018-07-15T06:13:38.592Z,70.10
2018-07-15T06:16:13.422Z,69.20
2018-07-15T06:18:45.373Z,68.50
2018-07-15T06:21:16.424Z,68.50
2018-07-15T06:23:47.977Z,69.10
2018-07-15T06:26:19.430Z,68.00
2018-07-15T06:28:51.299Z,67.70
2018-07-15T06:31:23.251Z,67.90
2018-07-15T06:33:54.704Z,68.00
2018-07-15T06:36:23.983Z,68.60
2018-07-15T06:38:51.733Z,69.80
2018-07-15T06:41:19.689Z,69.30
2018-07-15T06:46:22.014Z,68.80
2018-07-15T06:48:49.873Z,68.40
2018-07-15T06:51:17.793Z,68.20
2018-07-15T06:53:45.681Z,68.40
2018-07-15T06:56:14.569Z,68.80
2018-07-15T06:58:42.500Z,68.80
2018-07-15T07:01:10.358Z,68.60
2018-07-15T07:03:40.780Z,68.80
2018-07-15T07:06:11.929Z,69.20
2018-07-15T07:08:48.397Z,68.90
2018-07-15T07:11:21.223Z,68.70
2018-07-15T07:13:53.243Z,68.60
2018-07-15T07:16:26.950Z,68.40
2018-07-15T07:18:58.396Z,68.20
2018-07-15T07:21:30.433Z,67.70
2018-07-15T07:24:04.130Z,67.90
2018-07-15T07:26:37.054Z,68.10
2018-07-15T07:29:10.038Z,67.30
2018-07-15T07:31:42.105Z,66.40
2018-07-15T07:34:17.551Z,66.10
2018-07-15T07:36:52.010Z,65.90
2018-07-15T07:39:25.797Z,66.30
2018-07-15T07:41:58.862Z,66.60
2018-07-15T07:44:32.673Z,66.10
2018-07-15T07:47:07.509Z,66.10
2018-07-15T07:49:41.625Z,65.30
2018-07-15T07:52:15.832Z,64.10
2018-07-15T07:54:49.531Z,62.20
2018-07-15T07:57:21.597Z,61.70
2018-07-15T07:59:56.033Z,60.30
2018-07-15T08:02:30.762Z,59.40
2018-07-15T08:05:05.564Z,60.40
2018-07-15T08:07:39.493Z,56.00
2018-07-15T08:10:12.477Z,55.90
2018-07-15T08:12:48.926Z,56.20
2018-07-15T08:15:23.400Z,56.50
2018-07-15T08:20:51.177Z,53.30
2018-07-15T08:23:25.267Z,54.60
2018-07-15T08:26:00.098Z,54.90
2018-07-15T08:28:34.157Z,54.50
2018-07-15T08:31:13.327Z,53.10
2018-07-15T08:33:47.031Z,54.70
2018-07-15T08:36:20.814Z,55.00
2018-07-15T08:38:52.504Z,54.50
2018-07-15T08:41:27.637Z,51.70
2018-07-15T08:44:01.210Z,52.70
2018-07-15T08:46:35.354Z,53.90
2018-07-15T08:49:11.169Z,50.90
2018-07-15T08:54:42.072Z,50.40
2018-07-15T08:57:15.256Z,48.70
2018-07-15T08:59:45.480Z,47.60
2018-07-15T09:02:17.339Z,40.50
2018-07-15T09:04:48.428Z,42.70
2018-07-15T09:07:22.117Z,38.60
2018-07-15T09:09:50.246Z,37.30
2018-07-15T09:12:18.318Z,37.40
2018-07-15T09:14:47.444Z,36.30
2018-07-15T09:17:15.634Z,36.00
2018-07-15T09:19:44.593Z,38.50
2018-07-15T09:22:13.617Z,36.30
2018-07-15T09:24:41.544Z,38.30
2018-07-15T09:27:10.393Z,41.40
2018-07-15T09:29:38.301Z,41.60
2018-07-15T09:32:07.297Z,41.70
2018-07-15T09:34:35.229Z,42.10
2018-07-15T09:37:11.139Z,42.20
2018-07-15T09:39:39.676Z,40.70
2018-07-15T09:42:07.781Z,40.70
2018-07-15T09:44:35.641Z,40.80
2018-07-15T09:47:03.542Z,39.60
2018-07-15T09:49:31.512Z,39.20
2018-07-15T09:51:59.442Z,38.60
2018-07-15T09:54:27.577Z,38.80
2018-07-15T09:56:55.844Z,36.50
2018-07-15T09:59:23.911Z,38.60
2018-07-15T10:01:56.253Z,38.30
2018-07-15T10:04:24.277Z,37.30
2018-07-15T10:06:52.275Z,38.40
2018-07-15T10:09:20.174Z,37.60
2018-07-15T10:11:48.193Z,37.30
2018-07-15T10:14:16.183Z,37.00
2018-07-15T10:16:44.254Z,36.90
2018-07-15T10:19:12.173Z,35.80
2018-07-15T10:21:40.241Z,36.30
2018-07-15T10:24:08.159Z,35.90
2018-07-15T10:26:36.286Z,35.40
2018-07-15T10:29:04.420Z,35.40
2018-07-15T10:31:32.373Z,34.90
2018-07-15T10:34:00.320Z,33.00
2018-07-15T10:36:36.502Z,33.60
2018-07-15T10:39:06.216Z,35.00
2018-07-15T10:41:34.338Z,35.00
2018-07-15T10:44:02.491Z,33.30
2018-07-15T10:46:30.502Z,34.10
2018-07-15T10:48:58.307Z,33.80
2018-07-15T10:51:26.629Z,33.90
2018-07-15T10:53:54.709Z,33.50
2018-07-15T10:56:22.739Z,34.30
2018-07-15T10:58:51.096Z,34.70
2018-07-15T11:01:21.445Z,34.00
2018-07-15T11:03:58.297Z,32.20
2018-07-15T11:06:28.828Z,35.10
2018-07-15T11:09:01.245Z,35.10
2018-07-15T11:11:33.091Z,34.70
2018-07-15T11:14:04.541Z,35.30
2018-07-15T11:16:36.318Z,35.70
2018-07-15T11:19:08.312Z,35.60
2018-07-15T11:21:41.153Z,36.70
2018-07-15T11:24:11.061Z,36.60
2018-07-15T11:26:42.303Z,36.20
2018-07-15T11:29:13.387Z,34.40
2018-07-15T11:31:48.156Z,35.20
2018-07-15T11:34:21.265Z,35.00
2018-07-15T11:36:55.074Z,34.10
2018-07-15T11:39:25.294Z,34.00
2018-07-15T11:41:57.564Z,34.30
2018-07-15T11:44:29.633Z,35.30
2018-07-15T11:47:00.979Z,34.10
2018-07-15T11:49:32.605Z,34.30
2018-07-15T11:52:03.341Z,33.10
2018-07-15T11:54:31.537Z,33.90
2018-07-15T11:56:59.572Z,34.70
2018-07-15T11:59:27.349Z,34.30
2018-07-15T12:01:58.965Z,34.20
2018-07-15T12:04:30.234Z,35.20
2018-07-15T12:07:03.374Z,34.90
2018-07-15T12:09:36.777Z,35.50
2018-07-15T12:12:10.544Z,34.40
2018-07-15T12:14:43.537Z,33.10
2018-07-15T12:17:19.623Z,34.90
2018-07-15T12:28:26.962Z,34.80
2018-07-15T12:33:27.705Z,35.90
2018-07-15T12:35:55.705Z,35.50
2018-07-15T12:38:23.946Z,36.90
2018-07-15T12:40:51.798Z,36.50
2018-07-15T12:43:19.726Z,37.50
2018-07-15T12:45:47.587Z,35.90
2018-07-15T12:48:23.493Z,35.70
2018-07-15T12:50:51.292Z,35.90
2018-07-15T12:53:28.434Z,34.60
2018-07-15T12:55:56.414Z,36.10
2018-07-15T12:58:32.656Z,35.90
2018-07-15T13:01:05.393Z,37.50
2018-07-15T13:03:43.185Z,35.30
2018-07-15T13:06:17.483Z,36.30
2018-07-15T13:08:56.131Z,35.20
2018-07-15T13:11:29.185Z,35.70
2018-07-15T13:14:01.971Z,35.40
2018-07-15T13:16:34.883Z,35.60
2018-07-15T13:19:09.512Z,34.40
2018-07-15T13:21:40.751Z,37.30
2018-07-15T13:24:13.169Z,37.40
2018-07-15T13:26:49.127Z,36.40
2018-07-15T13:29:30.711Z,37.10
2018-07-15T13:34:50.715Z,36.00
2018-07-15T13:37:21.005Z,36.80
2018-07-15T13:39:54.249Z,37.30
2018-07-15T13:42:27.008Z,37.20
2018-07-15T13:45:00.921Z,37.40
2018-07-15T13:47:39.433Z,37.30
2018-07-15T13:50:10.486Z,37.00
2018-07-15T13:52:42.949Z,34.00
2018-07-15T13:55:16.316Z,34.90
2018-07-15T13:57:48.996Z,32.00
2018-07-15T14:00:19.590Z,33.80
2018-07-15T14:02:51.485Z,33.90
2018-07-15T14:05:22.131Z,33.10
2018-07-15T14:07:52.751Z,33.10
2018-07-15T14:10:31.514Z,30.60
2018-07-15T14:13:06.329Z,33.10
2018-07-15T14:15:37.576Z,33.90
2018-07-15T14:18:10.452Z,35.30
2018-07-15T14:20:43.125Z,35.50
2018-07-15T14:23:16.945Z,35.20
2018-07-15T14:25:50.545Z,36.10
2018-07-15T14:28:24.248Z,35.90
2018-07-15T14:30:57.854Z,34.50
2018-07-15T14:33:37.486Z,33.60
2018-07-15T14:36:11.402Z,33.20
2018-07-15T14:38:44.902Z,33.60
2018-07-15T14:41:24.749Z,34.50
2018-07-15T14:43:58.347Z,33.50
2018-07-15T14:46:31.889Z,35.20
2018-07-15T14:49:04.525Z,34.50
2018-07-15T14:51:37.181Z,34.60
2018-07-15T14:54:10.089Z,34.60
2018-07-15T14:56:42.052Z,34.80
2018-07-15T14:59:15.213Z,34.20
2018-07-15T15:01:48.435Z,34.60
2018-07-15T15:04:21.319Z,33.00
2018-07-15T15:06:54.274Z,32.90
2018-07-15T15:09:27.087Z,33.40
2018-07-15T15:12:00.688Z,32.70
2018-07-15T15:14:34.277Z,32.60
2018-07-15T15:17:06.971Z,30.30
2018-07-15T15:19:40.876Z,31.30
2018-07-15T15:22:14.375Z,31.00
2018-07-15T15:24:47.978Z,31.90
2018-07-15T15:27:27.610Z,32.20
2018-07-15T15:30:00.402Z,32.00
2018-07-15T15:32:34.001Z,31.50
2018-07-15T15:35:16.613Z,30.70
2018-07-15T15:43:54.649Z,31.00
2018-07-15T15:46:27.122Z,30.60
2018-07-15T15:48:59.678Z,31.00
2018-07-15T15:51:33.502Z,31.50
2018-07-15T15:54:03.932Z,32.20
2018-07-15T15:56:34.459Z,32.90
2018-07-15T16:02:08.910Z,33.10
2018-07-15T16:04:41.192Z,32.60
2018-07-15T16:07:12.726Z,32.50
2018-07-15T16:09:42.665Z,32.90
2018-07-15T16:12:12.509Z,34.20
2018-07-15T16:14:45.140Z,34.70
2018-07-15T16:17:18.743Z,34.90
2018-07-15T16:19:52.346Z,35.10
2018-07-15T16:22:25.029Z,35.50
2018-07-15T16:24:57.702Z,35.90
2018-07-15T16:27:30.384Z,36.40
2018-07-15T16:30:03.037Z,37.10
2018-07-15T16:32:35.713Z,37.30
2018-07-15T16:35:08.430Z,36.50
2018-07-15T16:37:41.108Z,36.50
2018-07-15T16:40:14.106Z,36.20
2018-07-15T16:42:48.005Z,36.90
2018-07-15T16:45:22.005Z,37.60
2018-07-15T16:47:54.961Z,38.20
2018-07-15T16:50:28.794Z,38.50
2018-07-15T16:53:03.409Z,39.20
2018-07-15T16:55:36.406Z,39.80
2018-07-15T16:58:07.340Z,40.50
2018-07-15T17:00:38.901Z,42.10
2018-07-15T17:03:10.278Z,43.30
2018-07-15T17:05:43.032Z,44.30
2018-07-15T17:08:14.692Z,45.60
2018-07-15T17:10:45.525Z,43.70
2018-07-15T17:13:15.993Z,44.80
2018-07-15T17:15:46.990Z,43.40
2018-07-15T17:18:18.039Z,45.00
2018-07-15T17:20:49.181Z,48.10
2018-07-15T17:23:21.239Z,48.80
2018-07-15T17:25:52.589Z,48.30
2018-07-15T17:28:25.885Z,48.50
2018-07-15T17:30:57.642Z,49.20
2018-07-15T17:33:28.153Z,50.60
2018-07-15T17:35:58.933Z,51.10
2018-07-15T17:38:30.710Z,52.00
2018-07-15T17:41:02.626Z,52.60
2018-07-15T17:43:34.263Z,52.10
2018-07-15T17:46:04.946Z,54.00
2018-07-15T17:48:36.776Z,57.40
2018-07-15T17:51:08.533Z,58.50
2018-07-15T17:53:39.984Z,59.30
2018-07-15T17:56:13.168Z,60.40
2018-07-15T17:58:44.099Z,61.50
2018-07-15T18:04:20.722Z,58.80
2018-07-15T18:06:55.236Z,58.90
2018-07-15T18:09:30.178Z,60.50
2018-07-15T18:12:04.875Z,56.50
2018-07-15T18:14:44.929Z,58.80
2018-07-15T18:17:25.287Z,60.70
2018-07-15T18:19:58.990Z,62.40
2018-07-15T18:22:31.263Z,60.70
2018-07-15T18:25:04.352Z,57.90
2018-07-15T18:27:37.950Z,58.30
2018-07-15T18:30:11.858Z,56.50
2018-07-15T18:32:45.459Z,56.30
2018-07-15T18:35:18.037Z,56.50
2018-07-15T18:37:50.718Z,57.00
2018-07-15T18:40:30.052Z,58.50
2018-07-15T18:43:03.654Z,59.20
2018-07-15T18:45:36.934Z,59.90
2018-07-15T18:48:09.727Z,60.10
2018-07-15T18:50:44.352Z,60.30
2018-07-15T18:53:17.135Z,59.70
2018-07-15T18:55:49.230Z,58.10
2018-07-15T18:58:20.067Z,58.70
2018-07-15T19:00:53.261Z,57.80
2018-07-15T19:03:27.144Z,59.10
2018-07-15T19:05:59.284Z,59.10
2018-07-15T19:08:32.265Z,59.40
2018-07-15T19:11:09.576Z,58.40
2018-07-15T19:13:44.697Z,58.90
2018-07-15T19:16:27.533Z,59.80
2018-07-15T19:19:01.129Z,59.80
2018-07-15T19:21:34.733Z,60.00
2018-07-15T19:24:14.989Z,60.00
2018-07-15T19:26:55.349Z,60.40
2018-07-15T19:29:28.841Z,61.00
2018-07-15T19:32:01.938Z,60.50
2018-07-15T19:34:34.285Z,59.30
2018-07-15T19:37:06.957Z,59.50
2018-07-15T19:39:40.180Z,60.20
2018-07-15T19:42:13.677Z,60.40
2018-07-15T19:44:47.169Z,60.50
2018-07-15T19:47:19.961Z,62.00
2018-07-15T19:49:52.739Z,62.60
2018-07-15T19:52:26.653Z,63.50
2018-07-15T19:55:00.442Z,64.10
2018-07-15T19:57:33.474Z,63.80
2018-07-15T20:00:08.074Z,64.40
2018-07-15T20:02:40.989Z,64.60
2018-07-15T20:05:13.766Z,64.30
2018-07-15T20:07:46.619Z,64.80
2018-07-15T20:10:20.217Z,65.50
2018-07-15T20:12:53.701Z,65.50
2018-07-15T20:15:36.530Z,65.20
2018-07-15T20:18:10.020Z,64.70
2018-07-15T20:20:42.706Z,64.70
2018-07-15T20:23:15.378Z,64.60
2018-07-15T20:25:50.120Z,64.60
2018-07-15T20:28:30.627Z,64.30
2018-07-15T20:31:09.507Z,64.50
2018-07-15T20:33:43.106Z,65.00
2018-07-15T20:36:16.686Z,65.00
2018-07-15T20:38:56.341Z,64.70
2018-07-15T20:41:28.957Z,64.70
2018-07-15T20:44:01.937Z,64.70
2018-07-15T20:46:43.517Z,63.80
2018-07-15T20:49:17.453Z,63.30
2018-07-15T20:51:53.060Z,63.70
2018-07-15T20:54:30.651Z,63.10
2018-07-15T20:57:03.309Z,63.40
2018-07-15T20:59:36.316Z,63.60
2018-07-15T21:02:16.779Z,63.70
2018-07-15T21:04:50.291Z,63.80
2018-07-15T21:07:29.992Z,63.10
2018-07-15T21:10:02.676Z,63.20
2018-07-15T21:12:36.373Z,64.30
2018-07-15T21:15:10.217Z,64.50
2018-07-15T21:17:42.994Z,64.30
2018-07-15T21:20:16.695Z,63.40
2018-07-15T21:22:51.219Z,63.30
2018-07-15T21:25:24.929Z,64.00
2018-07-15T21:27:58.848Z,64.70
2018-07-15T21:30:40.304Z,65.00
2018-07-15T21:36:27.755Z,65.70
2018-07-15T21:38:55.934Z,66.50
2018-07-15T21:41:23.758Z,66.90
2018-07-15T21:43:51.715Z,66.50
2018-07-15T21:46:19.658Z,66.20
2018-07-15T21:48:47.614Z,66.60
2018-07-15T21:51:15.537Z,67.20
2018-07-15T21:53:43.329Z,67.20
2018-07-15T21:56:11.162Z,67.10
2018-07-15T21:58:39.484Z,66.20
2018-07-15T22:01:07.324Z,66.40
2018-07-15T22:03:35.173Z,67.40
2018-07-15T22:06:03.129Z,68.10
2018-07-15T22:10:49.980Z,67.90
2018-07-15T22:13:18.193Z,68.30
2018-07-15T22:15:46.365Z,67.60
2018-07-15T22:18:14.157Z,67.20
2018-07-15T22:20:41.999Z,67.90
2018-07-15T22:23:11.852Z,70.50
2018-07-15T22:25:40.612Z,69.80
2018-07-15T22:28:08.421Z,70.40
2018-07-15T22:30:36.267Z,71.00
2018-07-15T22:33:04.332Z,71.30
2018-07-15T22:35:32.141Z,73.00
2018-07-15T22:37:59.908Z,71.50
2018-07-15T22:40:28.803Z,71.60
2018-07-15T22:42:56.599Z,72.50
2018-07-15T22:45:24.596Z,72.70
2018-07-15T22:47:52.653Z,73.60
2018-07-15T22:50:21.710Z,73.40
2018-07-15T22:52:51.038Z,73.80
2018-07-15T22:55:18.786Z,73.80
2018-07-15T22:57:46.866Z,73.50
2018-07-15T23:00:17.001Z,73.40
2018-07-15T23:02:47.770Z,73.60
2018-07-15T23:14:20.627Z,73.40
2018-07-15T23:16:52.876Z,73.70
2018-07-15T23:19:26.402Z,74.50
2018-07-15T23:22:13.890Z,74.80
2018-07-15T23:24:43.591Z,75.20
2018-07-15T23:27:12.381Z,74.50
2018-07-15T23:32:39.070Z,73.40
2018-07-15T23:41:10.777Z,73.20
